sensor_id;sensor_type;location;lat;lon;timestamp;pressure;altitude;pressure_sealevel;temperature
20092;BMP180;10205;49.678;6.560;2023-03-14T00:02:07;97907.00;;;15.00
20092;BMP180;10205;49.678;6.560;2023-03-14T00:04:34;97919.00;;;15.00
20092;BMP180;10205;49.678;6.560;2023-03-14T00:07:01;97910.00;;;15.00
20092;BMP180;10205;49.678;6.560;2023-03-14T00:09:28;97922.00;;;15.00
20092;BMP180;10205;49.678;6.560;2023-03-14T00:11:56;97916.00;;;15.00
20092;BMP180;10205;49.678;6.560;2023-03-14T00:14:25;97904.00;;;15.00
20092;BMP180;10205;49.678;6.560;2023-03-14T00:16:52;97900.00;;;15.00
20092;BMP180;10205;49.678;6.560;2023-03-14T00:19:19;97895.00;;;15.00
20092;BMP180;10205;49.678;6.560;2023-03-14T00:21:46;97895.00;;;15.00
20092;BMP180;10205;49.678;6.560;2023-03-14T00:24:13;97883.00;;;15.00
20092;BMP180;10205;49.678;6.560;2023-03-14T00:26:42;97916.00;;;15.00
20092;BMP180;10205;49.678;6.560;2023-03-14T00:29:12;97909.00;;;15.00
20092;BMP180;10205;49.678;6.560;2023-03-14T00:31:41;97908.00;;;15.00
20092;BMP180;10205;49.678;6.560;2023-03-14T00:34:08;97903.00;;;15.00
20092;BMP180;10205;49.678;6.560;2023-03-14T00:36:35;97908.00;;;15.00
20092;BMP180;10205;49.678;6.560;2023-03-14T00:39:02;97902.00;;;15.00
20092;BMP180;10205;49.678;6.560;2023-03-14T00:41:29;97904.00;;;15.00
20092;BMP180;10205;49.678;6.560;2023-03-14T00:43:56;97913.00;;;14.90
20092;BMP180;10205;49.678;6.560;2023-03-14T00:46:23;97904.00;;;14.90
20092;BMP180;10205;49.678;6.560;2023-03-14T00:48:51;97898.00;;;14.90
20092;BMP180;10205;49.678;6.560;2023-03-14T00:51:18;97890.00;;;14.90
20092;BMP180;10205;49.678;6.560;2023-03-14T00:53:45;97895.00;;;14.90
20092;BMP180;10205;49.678;6.560;2023-03-14T00:56:13;97892.00;;;14.90
20092;BMP180;10205;49.678;6.560;2023-03-14T00:58:40;97901.00;;;14.90
20092;BMP180;10205;49.678;6.560;2023-03-14T01:01:10;97899.00;;;14.90
20092;BMP180;10205;49.678;6.560;2023-03-14T01:03:38;97907.00;;;14.90
20092;BMP180;10205;49.678;6.560;2023-03-14T01:06:15;97904.00;;;14.90
20092;BMP180;10205;49.678;6.560;2023-03-14T01:08:43;97914.00;;;14.90
20092;BMP180;10205;49.678;6.560;2023-03-14T01:11:13;97898.00;;;14.80
20092;BMP180;10205;49.678;6.560;2023-03-14T01:13:41;97907.00;;;14.80
20092;BMP180;10205;49.678;6.560;2023-03-14T01:16:10;97897.00;;;14.80
20092;BMP180;10205;49.678;6.560;2023-03-14T01:18:40;97916.00;;;14.80
20092;BMP180;10205;49.678;6.560;2023-03-14T01:21:13;97905.00;;;14.80
20092;BMP180;10205;49.678;6.560;2023-03-14T01:23:42;97909.00;;;14.80
20092;BMP180;10205;49.678;6.560;2023-03-14T01:26:10;97912.00;;;14.80
20092;BMP180;10205;49.678;6.560;2023-03-14T01:28:37;97909.00;;;14.80
20092;BMP180;10205;49.678;6.560;2023-03-14T01:31:07;97902.00;;;14.80
20092;BMP180;10205;49.678;6.560;2023-03-14T01:33:34;97887.00;;;14.80
20092;BMP180;10205;49.678;6.560;2023-03-14T01:36:02;97890.00;;;14.70
20092;BMP180;10205;49.678;6.560;2023-03-14T01:38:31;97876.00;;;14.70
20092;BMP180;10205;49.678;6.560;2023-03-14T01:40:59;97892.00;;;14.80
20092;BMP180;10205;49.678;6.560;2023-03-14T01:43:27;97898.00;;;14.80
20092;BMP180;10205;49.678;6.560;2023-03-14T01:46:29;97883.00;;;14.70
20092;BMP180;10205;49.678;6.560;2023-03-14T01:49:13;97906.00;;;14.70
20092;BMP180;10205;49.678;6.560;2023-03-14T01:51:50;97890.00;;;14.70
20092;BMP180;10205;49.678;6.560;2023-03-14T01:54:25;97891.00;;;14.70
20092;BMP180;10205;49.678;6.560;2023-03-14T01:57:02;97888.00;;;14.70
20092;BMP180;10205;49.678;6.560;2023-03-14T01:59:31;97879.00;;;14.70
20092;BMP180;10205;49.678;6.560;2023-03-14T02:02:00;97889.00;;;14.70
20092;BMP180;10205;49.678;6.560;2023-03-14T02:04:32;97867.00;;;14.60
20092;BMP180;10205;49.678;6.560;2023-03-14T02:07:09;97863.00;;;14.60
20092;BMP180;10205;49.678;6.560;2023-03-14T02:09:42;97878.00;;;14.60
20092;BMP180;10205;49.678;6.560;2023-03-14T02:12:12;97857.00;;;14.60
20092;BMP180;10205;49.678;6.560;2023-03-14T02:14:41;97848.00;;;14.60
20092;BMP180;10205;49.678;6.560;2023-03-14T02:17:14;97864.00;;;14.60
20092;BMP180;10205;49.678;6.560;2023-03-14T02:20:03;97838.00;;;14.60
20092;BMP180;10205;49.678;6.560;2023-03-14T02:22:34;97836.00;;;14.50
20092;BMP180;10205;49.678;6.560;2023-03-14T02:25:09;97841.00;;;14.50
20092;BMP180;10205;49.678;6.560;2023-03-14T02:27:40;97834.00;;;14.50
20092;BMP180;10205;49.678;6.560;2023-03-14T02:30:11;97839.00;;;14.50
20092;BMP180;10205;49.678;6.560;2023-03-14T02:32:45;97830.00;;;14.50
20092;BMP180;10205;49.678;6.560;2023-03-14T02:35:18;97833.00;;;14.50
20092;BMP180;10205;49.678;6.560;2023-03-14T02:37:51;97824.00;;;14.50
20092;BMP180;10205;49.678;6.560;2023-03-14T02:40:22;97819.00;;;14.50
20092;BMP180;10205;49.678;6.560;2023-03-14T02:42:51;97815.00;;;14.50
20092;BMP180;10205;49.678;6.560;2023-03-14T02:45:43;97818.00;;;14.50
20092;BMP180;10205;49.678;6.560;2023-03-14T02:48:18;97817.00;;;14.40
20092;BMP180;10205;49.678;6.560;2023-03-14T02:50:48;97818.00;;;14.40
20092;BMP180;10205;49.678;6.560;2023-03-14T02:53:24;97818.00;;;14.40
20092;BMP180;10205;49.678;6.560;2023-03-14T02:55:52;97815.00;;;14.40
20092;BMP180;10205;49.678;6.560;2023-03-14T02:58:21;97812.00;;;14.40
20092;BMP180;10205;49.678;6.560;2023-03-14T03:00:48;97804.00;;;14.40
20092;BMP180;10205;49.678;6.560;2023-03-14T03:03:16;97799.00;;;14.40
20092;BMP180;10205;49.678;6.560;2023-03-14T03:05:48;97797.00;;;14.30
20092;BMP180;10205;49.678;6.560;2023-03-14T03:08:16;97793.00;;;14.30
20092;BMP180;10205;49.678;6.560;2023-03-14T03:10:43;97788.00;;;14.30
20092;BMP180;10205;49.678;6.560;2023-03-14T03:13:10;97770.00;;;14.30
20092;BMP180;10205;49.678;6.560;2023-03-14T03:15:39;97782.00;;;14.30
20092;BMP180;10205;49.678;6.560;2023-03-14T03:18:06;97784.00;;;14.30
20092;BMP180;10205;49.678;6.560;2023-03-14T03:20:33;97775.00;;;14.30
20092;BMP180;10205;49.678;6.560;2023-03-14T03:23:01;97771.00;;;14.30
20092;BMP180;10205;49.678;6.560;2023-03-14T03:25:28;97765.00;;;14.30
20092;BMP180;10205;49.678;6.560;2023-03-14T03:27:55;97760.00;;;14.20
20092;BMP180;10205;49.678;6.560;2023-03-14T03:30:23;97762.00;;;14.20
20092;BMP180;10205;49.678;6.560;2023-03-14T03:32:51;97757.00;;;14.20
20092;BMP180;10205;49.678;6.560;2023-03-14T03:35:18;97767.00;;;14.20
20092;BMP180;10205;49.678;6.560;2023-03-14T03:37:45;97761.00;;;14.20
20092;BMP180;10205;49.678;6.560;2023-03-14T03:40:17;97761.00;;;14.20
20092;BMP180;10205;49.678;6.560;2023-03-14T03:42:44;97756.00;;;14.10
20092;BMP180;10205;49.678;6.560;2023-03-14T03:45:11;97747.00;;;14.10
20092;BMP180;10205;49.678;6.560;2023-03-14T03:47:38;97749.00;;;14.10
20092;BMP180;10205;49.678;6.560;2023-03-14T03:50:08;97751.00;;;14.10
20092;BMP180;10205;49.678;6.560;2023-03-14T03:52:35;97750.00;;;14.10
20092;BMP180;10205;49.678;6.560;2023-03-14T03:55:03;97756.00;;;14.10
20092;BMP180;10205;49.678;6.560;2023-03-14T03:57:30;97751.00;;;14.10
20092;BMP180;10205;49.678;6.560;2023-03-14T03:59:57;97748.00;;;14.10
20092;BMP180;10205;49.678;6.560;2023-03-14T04:02:24;97765.00;;;14.10
20092;BMP180;10205;49.678;6.560;2023-03-14T04:04:51;97770.00;;;14.10
20092;BMP180;10205;49.678;6.560;2023-03-14T04:07:19;97761.00;;;14.10
20092;BMP180;10205;49.678;6.560;2023-03-14T04:09:46;97769.00;;;14.10
20092;BMP180;10205;49.678;6.560;2023-03-14T04:12:13;97751.00;;;14.00
20092;BMP180;10205;49.678;6.560;2023-03-14T04:14:40;97767.00;;;14.00
20092;BMP180;10205;49.678;6.560;2023-03-14T04:17:07;97762.00;;;14.00
20092;BMP180;10205;49.678;6.560;2023-03-14T04:19:35;97752.00;;;14.00
20092;BMP180;10205;49.678;6.560;2023-03-14T04:22:02;97748.00;;;14.00
20092;BMP180;10205;49.678;6.560;2023-03-14T04:24:30;97748.00;;;14.00
20092;BMP180;10205;49.678;6.560;2023-03-14T04:26:57;97759.00;;;13.90
20092;BMP180;10205;49.678;6.560;2023-03-14T04:29:24;97758.00;;;13.90
20092;BMP180;10205;49.678;6.560;2023-03-14T04:31:53;97759.00;;;13.90
20092;BMP180;10205;49.678;6.560;2023-03-14T04:34:20;97746.00;;;13.90
20092;BMP180;10205;49.678;6.560;2023-03-14T04:36:47;97748.00;;;13.90
20092;BMP180;10205;49.678;6.560;2023-03-14T04:39:14;97737.00;;;13.90
20092;BMP180;10205;49.678;6.560;2023-03-14T04:41:44;97735.00;;;13.90
20092;BMP180;10205;49.678;6.560;2023-03-14T04:44:12;97736.00;;;13.90
20092;BMP180;10205;49.678;6.560;2023-03-14T04:46:39;97731.00;;;13.90
20092;BMP180;10205;49.678;6.560;2023-03-14T04:49:06;97719.00;;;13.90
20092;BMP180;10205;49.678;6.560;2023-03-14T04:51:33;97716.00;;;13.80
20092;BMP180;10205;49.678;6.560;2023-03-14T04:54:00;97719.00;;;13.90
20092;BMP180;10205;49.678;6.560;2023-03-14T04:56:27;97704.00;;;13.80
20092;BMP180;10205;49.678;6.560;2023-03-14T04:58:55;97712.00;;;13.80
20092;BMP180;10205;49.678;6.560;2023-03-14T05:01:22;97705.00;;;13.80
20092;BMP180;10205;49.678;6.560;2023-03-14T05:03:49;97699.00;;;13.80
20092;BMP180;10205;49.678;6.560;2023-03-14T05:06:16;97698.00;;;13.80
20092;BMP180;10205;49.678;6.560;2023-03-14T05:08:44;97702.00;;;13.80
20092;BMP180;10205;49.678;6.560;2023-03-14T05:11:11;97691.00;;;13.80
20092;BMP180;10205;49.678;6.560;2023-03-14T05:13:39;97696.00;;;13.80
20092;BMP180;10205;49.678;6.560;2023-03-14T05:16:10;97688.00;;;13.80
20092;BMP180;10205;49.678;6.560;2023-03-14T05:18:37;97697.00;;;13.80
20092;BMP180;10205;49.678;6.560;2023-03-14T05:21:05;97679.00;;;13.80
20092;BMP180;10205;49.678;6.560;2023-03-14T05:23:32;97683.00;;;13.80
20092;BMP180;10205;49.678;6.560;2023-03-14T05:25:59;97691.00;;;13.80
20092;BMP180;10205;49.678;6.560;2023-03-14T05:28:26;97685.00;;;13.80
20092;BMP180;10205;49.678;6.560;2023-03-14T05:30:54;97680.00;;;13.80
20092;BMP180;10205;49.678;6.560;2023-03-14T05:33:22;97685.00;;;13.80
20092;BMP180;10205;49.678;6.560;2023-03-14T05:35:49;97672.00;;;13.70
20092;BMP180;10205;49.678;6.560;2023-03-14T05:38:16;97683.00;;;13.70
20092;BMP180;10205;49.678;6.560;2023-03-14T05:40:45;97676.00;;;13.70
20092;BMP180;10205;49.678;6.560;2023-03-14T05:43:12;97673.00;;;13.70
20092;BMP180;10205;49.678;6.560;2023-03-14T05:45:44;97678.00;;;13.70
20092;BMP180;10205;49.678;6.560;2023-03-14T05:48:11;97678.00;;;13.70
20092;BMP180;10205;49.678;6.560;2023-03-14T05:50:39;97668.00;;;13.70
20092;BMP180;10205;49.678;6.560;2023-03-14T05:53:06;97667.00;;;13.70
20092;BMP180;10205;49.678;6.560;2023-03-14T05:55:36;97670.00;;;13.70
20092;BMP180;10205;49.678;6.560;2023-03-14T05:58:03;97666.00;;;13.70
20092;BMP180;10205;49.678;6.560;2023-03-14T06:00:30;97670.00;;;13.70
20092;BMP180;10205;49.678;6.560;2023-03-14T06:02:57;97674.00;;;13.70
20092;BMP180;10205;49.678;6.560;2023-03-14T06:05:24;97663.00;;;13.60
20092;BMP180;10205;49.678;6.560;2023-03-14T06:07:52;97663.00;;;13.60
20092;BMP180;10205;49.678;6.560;2023-03-14T06:10:19;97665.00;;;13.60
20092;BMP180;10205;49.678;6.560;2023-03-14T06:12:49;97667.00;;;13.70
20092;BMP180;10205;49.678;6.560;2023-03-14T06:15:16;97662.00;;;13.60
20092;BMP180;10205;49.678;6.560;2023-03-14T06:17:43;97657.00;;;13.60
20092;BMP180;10205;49.678;6.560;2023-03-14T06:20:12;97654.00;;;13.60
20092;BMP180;10205;49.678;6.560;2023-03-14T06:22:41;97660.00;;;13.60
20092;BMP180;10205;49.678;6.560;2023-03-14T06:25:10;97645.00;;;13.60
20092;BMP180;10205;49.678;6.560;2023-03-14T06:27:37;97655.00;;;13.60
20092;BMP180;10205;49.678;6.560;2023-03-14T06:30:06;97656.00;;;13.60
20092;BMP180;10205;49.678;6.560;2023-03-14T06:32:33;97651.00;;;13.60
20092;BMP180;10205;49.678;6.560;2023-03-14T06:35:03;97656.00;;;13.60
20092;BMP180;10205;49.678;6.560;2023-03-14T06:37:30;97654.00;;;13.60
20092;BMP180;10205;49.678;6.560;2023-03-14T06:39:57;97654.00;;;13.60
20092;BMP180;10205;49.678;6.560;2023-03-14T06:42:26;97652.00;;;13.60
20092;BMP180;10205;49.678;6.560;2023-03-14T06:44:56;97654.00;;;13.60
20092;BMP180;10205;49.678;6.560;2023-03-14T06:47:29;97661.00;;;13.60
20092;BMP180;10205;49.678;6.560;2023-03-14T06:49:56;97654.00;;;13.60
20092;BMP180;10205;49.678;6.560;2023-03-14T06:52:23;97662.00;;;13.60
20092;BMP180;10205;49.678;6.560;2023-03-14T06:54:50;97661.00;;;13.60
20092;BMP180;10205;49.678;6.560;2023-03-14T06:57:17;97670.00;;;13.60
20092;BMP180;10205;49.678;6.560;2023-03-14T06:59:45;97674.00;;;13.60
20092;BMP180;10205;49.678;6.560;2023-03-14T07:02:16;97674.00;;;13.60
20092;BMP180;10205;49.678;6.560;2023-03-14T07:04:43;97671.00;;;13.60
20092;BMP180;10205;49.678;6.560;2023-03-14T07:07:11;97694.00;;;13.60
20092;BMP180;10205;49.678;6.560;2023-03-14T07:09:38;97674.00;;;13.60
20092;BMP180;10205;49.678;6.560;2023-03-14T07:12:07;97681.00;;;13.60
20092;BMP180;10205;49.678;6.560;2023-03-14T07:14:34;97669.00;;;13.60
20092;BMP180;10205;49.678;6.560;2023-03-14T07:17:03;97689.00;;;13.60
20092;BMP180;10205;49.678;6.560;2023-03-14T07:19:30;97695.00;;;13.60
20092;BMP180;10205;49.678;6.560;2023-03-14T07:21:57;97693.00;;;13.60
20092;BMP180;10205;49.678;6.560;2023-03-14T07:24:24;97678.00;;;13.60
20092;BMP180;10205;49.678;6.560;2023-03-14T07:26:51;97682.00;;;13.60
20092;BMP180;10205;49.678;6.560;2023-03-14T07:29:18;97686.00;;;13.60
20092;BMP180;10205;49.678;6.560;2023-03-14T07:31:45;97685.00;;;13.60
20092;BMP180;10205;49.678;6.560;2023-03-14T07:34:13;97670.00;;;13.60
20092;BMP180;10205;49.678;6.560;2023-03-14T07:36:40;97683.00;;;13.60
20092;BMP180;10205;49.678;6.560;2023-03-14T07:39:07;97692.00;;;13.60
20092;BMP180;10205;49.678;6.560;2023-03-14T07:41:34;97691.00;;;13.60
20092;BMP180;10205;49.678;6.560;2023-03-14T07:44:01;97681.00;;;13.70
20092;BMP180;10205;49.678;6.560;2023-03-14T07:46:28;97690.00;;;13.70
20092;BMP180;10205;49.678;6.560;2023-03-14T07:48:55;97677.00;;;13.70
20092;BMP180;10205;49.678;6.560;2023-03-14T07:51:24;97703.00;;;13.70
20092;BMP180;10205;49.678;6.560;2023-03-14T07:53:51;97691.00;;;13.70
20092;BMP180;10205;49.678;6.560;2023-03-14T07:56:18;97685.00;;;13.70
20092;BMP180;10205;49.678;6.560;2023-03-14T07:58:45;97685.00;;;13.70
20092;BMP180;10205;49.678;6.560;2023-03-14T08:01:12;97686.00;;;13.70
20092;BMP180;10205;49.678;6.560;2023-03-14T08:03:39;97687.00;;;13.70
20092;BMP180;10205;49.678;6.560;2023-03-14T08:06:06;97684.00;;;13.70
20092;BMP180;10205;49.678;6.560;2023-03-14T08:08:35;97689.00;;;13.70
20092;BMP180;10205;49.678;6.560;2023-03-14T08:11:03;97684.00;;;13.70
20092;BMP180;10205;49.678;6.560;2023-03-14T08:13:31;97685.00;;;13.70
20092;BMP180;10205;49.678;6.560;2023-03-14T08:15:58;97674.00;;;13.70
20092;BMP180;10205;49.678;6.560;2023-03-14T08:18:25;97682.00;;;13.70
20092;BMP180;10205;49.678;6.560;2023-03-14T08:20:52;97684.00;;;13.70
20092;BMP180;10205;49.678;6.560;2023-03-14T08:23:19;97682.00;;;13.80
20092;BMP180;10205;49.678;6.560;2023-03-14T08:25:49;97680.00;;;13.80
20092;BMP180;10205;49.678;6.560;2023-03-14T08:28:16;97680.00;;;13.80
20092;BMP180;10205;49.678;6.560;2023-03-14T08:30:44;97674.00;;;13.80
20092;BMP180;10205;49.678;6.560;2023-03-14T08:33:11;97677.00;;;13.80
20092;BMP180;10205;49.678;6.560;2023-03-14T08:35:38;97675.00;;;13.80
20092;BMP180;10205;49.678;6.560;2023-03-14T08:38:05;97687.00;;;13.80
20092;BMP180;10205;49.678;6.560;2023-03-14T08:40:32;97680.00;;;13.90
20092;BMP180;10205;49.678;6.560;2023-03-14T08:43:01;97670.00;;;13.90
20092;BMP180;10205;49.678;6.560;2023-03-14T08:45:28;97680.00;;;13.90
20092;BMP180;10205;49.678;6.560;2023-03-14T08:47:55;97673.00;;;13.90
20092;BMP180;10205;49.678;6.560;2023-03-14T08:50:22;97660.00;;;13.90
20092;BMP180;10205;49.678;6.560;2023-03-14T08:52:50;97669.00;;;13.90
20092;BMP180;10205;49.678;6.560;2023-03-14T08:55:17;97680.00;;;13.90
20092;BMP180;10205;49.678;6.560;2023-03-14T08:57:45;97675.00;;;14.00
20092;BMP180;10205;49.678;6.560;2023-03-14T09:00:15;97686.00;;;14.00
20092;BMP180;10205;49.678;6.560;2023-03-14T09:02:42;97693.00;;;14.00
20092;BMP180;10205;49.678;6.560;2023-03-14T09:05:10;97701.00;;;14.00
20092;BMP180;10205;49.678;6.560;2023-03-14T09:07:38;97701.00;;;14.00
20092;BMP180;10205;49.678;6.560;2023-03-14T09:10:07;97703.00;;;14.00
20092;BMP180;10205;49.678;6.560;2023-03-14T09:12:35;97702.00;;;14.00
20092;BMP180;10205;49.678;6.560;2023-03-14T09:15:02;97712.00;;;14.00
20092;BMP180;10205;49.678;6.560;2023-03-14T09:17:31;97728.00;;;14.10
20092;BMP180;10205;49.678;6.560;2023-03-14T09:19:58;97725.00;;;14.10
20092;BMP180;10205;49.678;6.560;2023-03-14T09:22:25;97730.00;;;14.10
20092;BMP180;10205;49.678;6.560;2023-03-14T09:24:52;97716.00;;;14.10
20092;BMP180;10205;49.678;6.560;2023-03-14T09:27:19;97720.00;;;14.10
20092;BMP180;10205;49.678;6.560;2023-03-14T09:29:47;97721.00;;;14.10
20092;BMP180;10205;49.678;6.560;2023-03-14T09:32:14;97732.00;;;14.10
20092;BMP180;10205;49.678;6.560;2023-03-14T09:34:43;97752.00;;;14.10
20092;BMP180;10205;49.678;6.560;2023-03-14T09:37:10;97751.00;;;14.10
20092;BMP180;10205;49.678;6.560;2023-03-14T09:39:37;97760.00;;;14.20
20092;BMP180;10205;49.678;6.560;2023-03-14T09:42:12;97770.00;;;14.20
20092;BMP180;10205;49.678;6.560;2023-03-14T09:44:51;97775.00;;;14.20
20092;BMP180;10205;49.678;6.560;2023-03-14T09:47:20;97814.00;;;14.20
20092;BMP180;10205;49.678;6.560;2023-03-14T09:49:49;97840.00;;;14.20
20092;BMP180;10205;49.678;6.560;2023-03-14T09:52:21;97857.00;;;14.20
20092;BMP180;10205;49.678;6.560;2023-03-14T09:54:52;97873.00;;;14.20
20092;BMP180;10205;49.678;6.560;2023-03-14T09:57:24;97887.00;;;14.20
20092;BMP180;10205;49.678;6.560;2023-03-14T09:59:56;97910.00;;;14.20
20092;BMP180;10205;49.678;6.560;2023-03-14T10:02:33;97937.00;;;14.10
20092;BMP180;10205;49.678;6.560;2023-03-14T10:05:13;97942.00;;;14.10
20092;BMP180;10205;49.678;6.560;2023-03-14T10:07:41;97968.00;;;14.10
20092;BMP180;10205;49.678;6.560;2023-03-14T10:10:14;97974.00;;;14.00
20092;BMP180;10205;49.678;6.560;2023-03-14T10:12:46;98005.00;;;14.00
20092;BMP180;10205;49.678;6.560;2023-03-14T10:15:24;98011.00;;;13.90
20092;BMP180;10205;49.678;6.560;2023-03-14T10:17:51;98050.00;;;13.90
20092;BMP180;10205;49.678;6.560;2023-03-14T10:20:33;98047.00;;;13.90
20092;BMP180;10205;49.678;6.560;2023-03-14T10:23:04;98090.00;;;13.80
20092;BMP180;10205;49.678;6.560;2023-03-14T10:25:36;98068.00;;;13.80
20092;BMP180;10205;49.678;6.560;2023-03-14T10:28:05;98091.00;;;13.80
20092;BMP180;10205;49.678;6.560;2023-03-14T10:30:43;98092.00;;;13.70
20092;BMP180;10205;49.678;6.560;2023-03-14T10:33:20;98102.00;;;13.60
20092;BMP180;10205;49.678;6.560;2023-03-14T10:35:53;98103.00;;;13.60
20092;BMP180;10205;49.678;6.560;2023-03-14T10:38:26;98108.00;;;13.50
20092;BMP180;10205;49.678;6.560;2023-03-14T10:40:55;98122.00;;;13.50
20092;BMP180;10205;49.678;6.560;2023-03-14T10:43:26;98118.00;;;13.50
20092;BMP180;10205;49.678;6.560;2023-03-14T10:45:56;98134.00;;;13.50
20092;BMP180;10205;49.678;6.560;2023-03-14T10:48:32;98155.00;;;13.50
20092;BMP180;10205;49.678;6.560;2023-03-14T10:51:07;98155.00;;;13.50
20092;BMP180;10205;49.678;6.560;2023-03-14T10:53:48;98162.00;;;13.50
20092;BMP180;10205;49.678;6.560;2023-03-14T10:56:18;98184.00;;;13.50
20092;BMP180;10205;49.678;6.560;2023-03-14T10:58:48;98178.00;;;13.40
20092;BMP180;10205;49.678;6.560;2023-03-14T11:01:28;98188.00;;;13.50
20092;BMP180;10205;49.678;6.560;2023-03-14T11:04:05;98207.00;;;13.50
20092;BMP180;10205;49.678;6.560;2023-03-14T11:06:44;98214.00;;;13.50
20092;BMP180;10205;49.678;6.560;2023-03-14T11:09:23;98231.00;;;13.50
20092;BMP180;10205;49.678;6.560;2023-03-14T11:11:56;98212.00;;;13.50
20092;BMP180;10205;49.678;6.560;2023-03-14T11:14:32;98218.00;;;13.40
20092;BMP180;10205;49.678;6.560;2023-03-14T11:17:09;98229.00;;;13.40
20092;BMP180;10205;49.678;6.560;2023-03-14T11:19:53;98236.00;;;13.40
20092;BMP180;10205;49.678;6.560;2023-03-14T11:22:34;98261.00;;;13.40
20092;BMP180;10205;49.678;6.560;2023-03-14T11:25:21;98257.00;;;13.40
20092;BMP180;10205;49.678;6.560;2023-03-14T11:27:57;98270.00;;;13.40
20092;BMP180;10205;49.678;6.560;2023-03-14T11:30:35;98284.00;;;13.40
20092;BMP180;10205;49.678;6.560;2023-03-14T11:33:13;98292.00;;;13.50
20092;BMP180;10205;49.678;6.560;2023-03-14T11:35:47;98303.00;;;13.50
20092;BMP180;10205;49.678;6.560;2023-03-14T11:38:29;98330.00;;;13.50
20092;BMP180;10205;49.678;6.560;2023-03-14T11:40:59;98380.00;;;13.50
20092;BMP180;10205;49.678;6.560;2023-03-14T11:43:30;98378.00;;;13.40
20092;BMP180;10205;49.678;6.560;2023-03-14T11:46:08;98367.00;;;13.40
20092;BMP180;10205;49.678;6.560;2023-03-14T11:48:45;98388.00;;;13.30
20092;BMP180;10205;49.678;6.560;2023-03-14T11:51:23;98384.00;;;13.30
20092;BMP180;10205;49.678;6.560;2023-03-14T11:54:01;98396.00;;;13.20
20092;BMP180;10205;49.678;6.560;2023-03-14T11:56:37;98415.00;;;13.10
20092;BMP180;10205;49.678;6.560;2023-03-14T11:59:14;98410.00;;;13.10
20092;BMP180;10205;49.678;6.560;2023-03-14T12:01:54;98423.00;;;13.00
20092;BMP180;10205;49.678;6.560;2023-03-14T12:04:39;98426.00;;;13.00
20092;BMP180;10205;49.678;6.560;2023-03-14T12:07:19;98428.00;;;13.00
20092;BMP180;10205;49.678;6.560;2023-03-14T12:09:50;98438.00;;;13.00
20092;BMP180;10205;49.678;6.560;2023-03-14T12:12:23;98462.00;;;13.00
20092;BMP180;10205;49.678;6.560;2023-03-14T12:14:57;98461.00;;;13.00
20092;BMP180;10205;49.678;6.560;2023-03-14T12:17:32;98487.00;;;13.00
20092;BMP180;10205;49.678;6.560;2023-03-14T12:20:06;98464.00;;;13.00
20092;BMP180;10205;49.678;6.560;2023-03-14T12:22:45;98466.00;;;13.00
20092;BMP180;10205;49.678;6.560;2023-03-14T12:25:19;98486.00;;;12.90
20092;BMP180;10205;49.678;6.560;2023-03-14T12:28:03;98482.00;;;12.90
20092;BMP180;10205;49.678;6.560;2023-03-14T12:30:33;98494.00;;;13.00
20092;BMP180;10205;49.678;6.560;2023-03-14T12:33:33;98487.00;;;13.00
20092;BMP180;10205;49.678;6.560;2023-03-14T12:36:12;98483.00;;;13.00
20092;BMP180;10205;49.678;6.560;2023-03-14T12:38:59;98497.00;;;13.00
20092;BMP180;10205;49.678;6.560;2023-03-14T12:41:38;98505.00;;;13.00
20092;BMP180;10205;49.678;6.560;2023-03-14T12:44:43;98523.00;;;13.00
20092;BMP180;10205;49.678;6.560;2023-03-14T12:47:53;98513.00;;;13.00
20092;BMP180;10205;49.678;6.560;2023-03-14T12:50:28;98531.00;;;13.00
20092;BMP180;10205;49.678;6.560;2023-03-14T12:56:21;98536.00;;;13.00
20092;BMP180;10205;49.678;6.560;2023-03-14T12:59:18;98540.00;;;13.00
20092;BMP180;10205;49.678;6.560;2023-03-14T13:01:55;98546.00;;;13.10
20092;BMP180;10205;49.678;6.560;2023-03-14T13:04:31;98558.00;;;13.10
20092;BMP180;10205;49.678;6.560;2023-03-14T13:07:02;98543.00;;;13.10
20092;BMP180;10205;49.678;6.560;2023-03-14T13:09:51;98551.00;;;13.10
20092;BMP180;10205;49.678;6.560;2023-03-14T13:12:27;98575.00;;;13.20
20092;BMP180;10205;49.678;6.560;2023-03-14T13:14:59;98586.00;;;13.20
20092;BMP180;10205;49.678;6.560;2023-03-14T13:17:33;98593.00;;;13.20
20092;BMP180;10205;49.678;6.560;2023-03-14T13:20:10;98577.00;;;13.20
20092;BMP180;10205;49.678;6.560;2023-03-14T13:22:46;98593.00;;;13.20
20092;BMP180;10205;49.678;6.560;2023-03-14T13:25:13;98591.00;;;13.20
20092;BMP180;10205;49.678;6.560;2023-03-14T13:27:42;98604.00;;;13.20
20092;BMP180;10205;49.678;6.560;2023-03-14T13:30:22;98586.00;;;13.20
20092;BMP180;10205;49.678;6.560;2023-03-14T13:32:52;98601.00;;;13.20
20092;BMP180;10205;49.678;6.560;2023-03-14T13:35:24;98609.00;;;13.20
20092;BMP180;10205;49.678;6.560;2023-03-14T13:38:02;98613.00;;;13.20
20092;BMP180;10205;49.678;6.560;2023-03-14T13:40:32;98606.00;;;13.20
20092;BMP180;10205;49.678;6.560;2023-03-14T13:43:05;98612.00;;;13.20
20092;BMP180;10205;49.678;6.560;2023-03-14T13:45:47;98615.00;;;13.20
20092;BMP180;10205;49.678;6.560;2023-03-14T13:48:15;98608.00;;;13.20
20092;BMP180;10205;49.678;6.560;2023-03-14T13:50:50;98602.00;;;13.30
20092;BMP180;10205;49.678;6.560;2023-03-14T13:53:18;98598.00;;;13.30
20092;BMP180;10205;49.678;6.560;2023-03-14T13:55:45;98614.00;;;13.30
20092;BMP180;10205;49.678;6.560;2023-03-14T13:58:26;98600.00;;;13.30
20092;BMP180;10205;49.678;6.560;2023-03-14T14:00:59;98607.00;;;13.30
20092;BMP180;10205;49.678;6.560;2023-03-14T14:03:31;98610.00;;;13.40
20092;BMP180;10205;49.678;6.560;2023-03-14T14:05:58;98611.00;;;13.40
20092;BMP180;10205;49.678;6.560;2023-03-14T14:08:26;98624.00;;;13.40
20092;BMP180;10205;49.678;6.560;2023-03-14T14:10:58;98622.00;;;13.40
20092;BMP180;10205;49.678;6.560;2023-03-14T14:13:32;98618.00;;;13.40
20092;BMP180;10205;49.678;6.560;2023-03-14T14:16:04;98629.00;;;13.40
20092;BMP180;10205;49.678;6.560;2023-03-14T14:18:33;98624.00;;;13.40
20092;BMP180;10205;49.678;6.560;2023-03-14T14:21:02;98630.00;;;13.40
20092;BMP180;10205;49.678;6.560;2023-03-14T14:23:29;98624.00;;;13.40
20092;BMP180;10205;49.678;6.560;2023-03-14T14:25:58;98630.00;;;13.40
20092;BMP180;10205;49.678;6.560;2023-03-14T14:28:29;98639.00;;;13.40
20092;BMP180;10205;49.678;6.560;2023-03-14T14:31:20;98655.00;;;13.40
20092;BMP180;10205;49.678;6.560;2023-03-14T14:33:55;98651.00;;;13.40